METAR Data
IDs: Format: Raw Decoded Include TAF

Data at: 0146 UTC 01 Mar 2021

KLXT 010053Z AUTO 35010KT 10SM FEW030 04/M02 A3010 RMK AO2 SLP196 T00441022 TSNO